sim
Sign-in with your pilot id or email,
or register
Callsign
Passwort

Schedule Details

Flight Number: DLH2091 (1)
Departure: Hannover Langenhagen Airport (EDDV) at 07:30
Arrival: Munich Airport (EDDM) at 08:40
Route: Lufthansa Passenger Schedule. Enter filed route here before submitting Pirep.

Weather Information
Getting current METAR information for EDDV 191220Z 08012KT 060V120 CAVOK 21/06 Q1021 NOSIG
Getting current METAR information for EDDM 191220Z 04004KT 320V070 CAVOK 21/12 Q1019 NOSIG

Schedule Frequency

Route Map